• Join FlightAware (Why Join?)
  • Login
  • US Flag 
03:28AM EDT


 

Airport Tracker/Info


-or-


 

Live Flight TrackerFlight Track Log ✈ N53NW ✈ 13-Feb-2014 ✈ KSTL - KSLK

Flight Track Log - Related Links

Times and Time Zones

All times are in EST time to prevent confusion due to time zone crossing. See the N53NW flight status page for this flight to view local times or setup timezone preferences in your user account.

Time Position Orientation Groundspeed Altitude Reporting Facility
EST Latitude Longitude Course Direction KTS MPH feet Rate Location/Type
11:04AM 38.7667 -90.3833 341° North 190 219 2,000  Level Gateway (St. Louis) TRACON
11:05AM 38.8192 -90.4064 341° North 214 246 4,200 3,300 Climbing Kansas City Center
11:06AM 38.8628 -90.3494 45° Northeast 254 292 8,900 4,140 Climbing Kansas City Center
11:07AM 38.8631 -90.2519 90° East 271 312 12,700 2,940 Climbing Kansas City Center
11:08AM 38.8519 -90.1422 97° East 301 346 15,000 2,220 Climbing Kansas City Center
11:09AM 38.8414 -90.0292 97° East 306 352 17,300 3,060 Climbing Kansas City Center
11:10AM 38.8297 -89.9017 97° East 308 354 21,300 3,240 Climbing Kansas City Center
11:11AM 38.8189 -89.7844 97° East 321 369 24,000 2,520 Climbing Kansas City Center
11:12AM 38.8058 -89.6569 97° East 347 399 26,600 2,460 Climbing Kansas City Center
11:13AM 38.7939 -89.5264 97° East 367 422 29,100 2,340 Climbing Kansas City Center
11:14AM 38.8067 -89.3997 83° East 358 412 31,500 2,160 Climbing Kansas City Center
11:15AM 38.8222 -89.2744 81° East 356 410 33,600 1,920 Climbing Kansas City Center
11:16AM 38.8417 -89.1225 81° East 361 415 35,500 1,440 Climbing Kansas City Center
11:17AM 38.8583 -88.9931 81° East 367 422 36,600 900 Climbing Kansas City Center
11:18AM 38.8753 -88.8544 81° East 388 447 37,400 840 Climbing Kansas City Center
11:19AM 38.8928 -88.7131 81° East 397 457 38,400 960 Climbing Kansas City Center
11:20AM 38.9117 -88.5636 81° East 404 465 39,400 960 Climbing Kansas City Center
11:21AM 38.9383 -88.4219 76° East 405 466 40,400 900 Climbing Kansas City Center
11:22AM 38.9742 -88.2889 71° East 395 455 41,300 720 Climbing Kansas City Center
11:23AM 39.0225 -88.1608 64° Northeast 394 453 42,000 600 Climbing Kansas City Center
11:24AM 39.0617 -88.0644 62° Northeast 391 450 42,400 480 Climbing Indianapolis Center
11:25AM 39.1133 -87.9386 62° Northeast 394 453 42,900 240 Climbing Indianapolis Center
11:26AM 39.1647 -87.8100 63° Northeast 398 458 43,000  Climbing Indianapolis Center
11:27AM 39.2197 -87.6764 62° Northeast 412 474 43,000  Level Indianapolis Center
11:28AM 39.2783 -87.5258 63° Northeast 424 488 43,100 540 Climbing Indianapolis Center
11:29AM 39.3331 -87.3925 62° Northeast 425 489 44,100 780 Climbing Indianapolis Center
11:30AM 39.3842 -87.2617 63° Northeast 415 478 44,700 420 Climbing Indianapolis Center
11:31AM 39.4339 -87.1356 63° Northeast 402 463 45,000 120 Climbing Indianapolis Center
11:32AM 39.4856 -87.0056 63° Northeast 403 464 45,000  Level Indianapolis Center
11:33AM 39.5375 -86.8733 63° Northeast 411 473 45,000  Level Indianapolis Center
11:34AM 39.5903 -86.7403 63° Northeast 416 479 45,000  Level Indianapolis Center
11:35AM 39.6517 -86.5797 64° Northeast 416 479 45,000  Level Indianapolis Center
11:36AM 39.7028 -86.4444 64° Northeast 417 480 45,000  Level Indianapolis Center
11:37AM 39.7531 -86.3117 64° Northeast 414 476 45,000  Level Indianapolis Center
11:38AM 39.8053 -86.1797 63° Northeast 412 474 45,000  Level Indianapolis Center
11:39AM 39.8492 -86.0633 64° Northeast 410 472 45,000  Level Indianapolis Center
11:40AM 39.9089 -85.9044 64° Northeast 409 471 45,000  Level Indianapolis Center
11:41AM 39.9597 -85.7711 64° Northeast 412 474 45,000  Level Indianapolis Center
11:42AM 40.0083 -85.6389 64° Northeast 408 470 45,000  Level Indianapolis Center
11:43AM 40.0583 -85.5067 64° Northeast 408 470 45,000  Level Indianapolis Center
11:44AM 40.1069 -85.3747 64° Northeast 407 468 45,000  Level Indianapolis Center
11:45AM 40.1561 -85.2433 64° Northeast 405 466 45,000  Level Indianapolis Center
11:46AM 40.2056 -85.1103 64° Northeast 407 468 45,000  Level Indianapolis Center
11:47AM 40.2542 -84.9753 65° Northeast 410 472 45,000  Level Indianapolis Center
11:48AM 40.3072 -84.8289 65° Northeast 415 478 45,000  Level Indianapolis Center
11:49AM 40.3572 -84.6919 64° Northeast 415 478 45,000  Level Indianapolis Center
11:50AM 40.4081 -84.5536 64° Northeast 419 482 45,000  Level Indianapolis Center
11:52AM 40.4567 -84.4161 65° Northeast 417 480 45,000  Level Indianapolis Center
11:53AM 40.5061 -84.2794 65° Northeast 415 478 45,000  Level Indianapolis Center
11:54AM 40.5564 -84.1411 64° Northeast 418 481 45,000  Level Indianapolis Center
11:55AM 40.6150 -83.9756 65° Northeast 416 479 45,000  Level Indianapolis Center
11:56AM 40.6628 -83.8389 65° Northeast 412 474 45,000  Level Indianapolis Center
11:57AM 40.7106 -83.7008 65° Northeast 412 474 45,000  Level Indianapolis Center
11:58AM 40.7586 -83.5625 65° Northeast 413 475 45,000  Level Indianapolis Center
11:59AM 40.8031 -83.4364 65° Northeast 415 478 45,000  Level Indianapolis Center
12:00PM 40.8517 -83.2961 65° Northeast 416 479 45,000  Level Indianapolis Center
12:00PM 40.8944 -83.1725 65° Northeast 416 479 45,000  Level Cleveland Center
12:01PM 40.9414 -83.0361 65° Northeast 419 482 45,000  Level Cleveland Center
12:03PM 40.9903 -82.8956 65° Northeast 418 481 45,000  Level Cleveland Center
12:04PM 41.0375 -82.7528 66° East 419 482 45,000  Level Cleveland Center
12:05PM 41.0864 -82.6103 65° Northeast 421 484 45,000  Level Cleveland Center
12:06PM 41.1342 -82.4675 66° East 420 483 45,000  Level Cleveland Center
12:07PM 41.1817 -82.3242 66° East 420 483 45,000  Level Cleveland Center
12:08PM 41.2383 -82.1536 66° East 426 490 45,000  Level Cleveland Center
12:09PM 41.2836 -82.0186 66° East 424 488 45,000  Level Cleveland Center
12:10PM 41.3306 -81.8756 66° East 423 487 45,000  Level Cleveland Center
12:11PM 41.3767 -81.7303 67° East 425 489 45,000  Level Cleveland Center
12:12PM 41.4217 -81.5903 67° East 419 482 45,000  Level Cleveland Center
12:13PM 41.4703 -81.4428 66° East 425 489 45,000  Level Cleveland Center
12:14PM 41.5183 -81.2942 67° East 430 495 45,000  Level Cleveland Center
12:15PM 41.5664 -81.1464 66° East 430 495 45,000  Level Cleveland Center
12:16PM 41.6131 -80.9981 67° East 429 494 45,000  Level Cleveland Center
12:17PM 41.6594 -80.8514 67° East 426 490 45,000  Level Cleveland Center
12:18PM 41.7061 -80.7050 67° East 425 489 45,000  Level Cleveland Center
12:19PM 41.7528 -80.5583 67° East 424 488 45,000  Level Cleveland Center
12:20PM 41.8058 -80.3869 67° East 423 487 45,000  Level Cleveland Center
12:21PM 41.8519 -80.2406 67° East 424 488 45,000  Level Cleveland Center
12:22PM 41.8958 -80.0928 68° East 421 484 45,000  Level Cleveland Center
12:23PM 41.9386 -79.9519 68° East 424 488 45,000  Level Cleveland Center
12:24PM 41.9842 -79.8053 67° East 425 489 45,000  Level Cleveland Center
12:25PM 42.0286 -79.6583 68° East 425 489 45,000  Level Cleveland Center
12:26PM 42.0731 -79.5114 68° East 425 489 45,000  Level Cleveland Center
12:27PM 42.1167 -79.3622 68° East 428 493 45,000  Level Cleveland Center
12:28PM 42.1614 -79.2144 68° East 428 493 45,000  Level Cleveland Center
12:29PM 42.2139 -79.0697 64° Northeast 431 496 45,000  Level Cleveland Center
12:30PM 42.2914 -78.9086 57° Northeast 429 494 45,000  Level Cleveland Center
12:31PM 42.3561 -78.7725 57° Northeast 431 496 45,000  Level Cleveland Center
12:32PM 42.4211 -78.6375 57° Northeast 429 494 45,000  Level Cleveland Center
12:33PM 42.4867 -78.5003 57° Northeast 433 498 45,000  Level Cleveland Center
12:34PM 42.5497 -78.3653 58° Northeast 428 493 45,000  Level Cleveland Center
12:35PM 42.6150 -78.2272 57° Northeast 435 501 45,000  Level Cleveland Center
12:36PM 42.6803 -78.0894 57° Northeast 436 502 45,000  Level Cleveland Center
12:37PM 42.7506 -77.9342 58° Northeast 434 499 45,000  Level Cleveland Center
12:38PM 42.8192 -77.7889 57° Northeast 438 504 45,000  Level Cleveland Center
12:39PM 42.8767 -77.6631 58° Northeast 438 504 45,000  Level Cleveland Center
12:40PM 42.9419 -77.5219 58° Northeast 440 506 45,000 -1,020 Level Cleveland Center
12:41PM 43.0094 -77.3767 58° Northeast 454 522 43,000 -2,040 Descending Cleveland Center
12:42PM 43.0775 -77.2294 58° Northeast 459 528 40,900 -2,400 Descending Cleveland Center
12:43PM 43.1581 -77.0569 57° Northeast 446 513 38,200 -2,400 Descending Cleveland Center
12:44PM 43.2183 -76.9183 59° Northeast 428 493 36,000 -2,160 Descending Cleveland Center
12:45PM 43.2839 -76.7758 58° Northeast 436 502 33,800 -1,500 Descending Cleveland Center
12:46PM 43.3475 -76.6333 58° Northeast 438 504 33,000 -480 Descending Cleveland Center
12:47PM 43.3853 -76.5475 59° Northeast 433 498 33,000  Level Boston Center
12:48PM 43.4475 -76.4067 59° Northeast 432 497 33,000 -540 Level Boston Center
12:49PM 43.5114 -76.2622 59° Northeast 440 506 32,000 -1,800 Descending Boston Center
12:50PM 43.5808 -76.1039 59° Northeast 406 467 29,400 -2,400 Descending Boston Center
12:51PM 43.6344 -75.9783 59° Northeast 383 441 27,200 -2,220 Descending Boston Center
12:52PM 43.6897 -75.8533 59° Northeast 381 438 25,000 -2,280 Descending Boston Center
12:53PM 43.7422 -75.7331 59° Northeast 367 422 22,700 -2,220 Descending Boston Center
12:54PM 43.7908 -75.6189 59° Northeast 348 400 20,600 -1,920 Descending Boston Center
12:55PM 43.8361 -75.5131 59° Northeast 327 376 18,900 -1,740 Descending Boston Center
12:56PM 43.8825 -75.4031 60° Northeast 328 377 17,100 -1,740 Descending Boston Center
12:57PM 43.9264 -75.2989 60° Northeast 318 366 15,400 -1,740 Descending Boston Center
12:58PM 43.9669 -75.2081 58° Northeast 289 333 13,600 -1,740 Descending Boston Center
12:59PM 44.0028 -75.1208 60° Northeast 268 308 11,900 -1,320 Descending Boston Center
01:00PM 44.0417 -75.0328 58° Northeast 266 306 11,000 -480 Descending Boston Center
01:01PM 44.0789 -74.9411 60° Northeast 271 312 11,000 -780 Level Boston Center
01:02PM 44.1167 -74.8533 59° Northeast 267 307 9,500 -960 Descending Boston Center
01:03PM 44.1531 -74.7633 61° Northeast 267 307 9,100 -660 Descending Boston Center
01:04PM 44.2003 -74.6833 51° Northeast 267 307 8,200 -1,020 Descending Boston Center
01:05PM 44.2439 -74.6075 51° Northeast 257 296 7,100 -1,080 Descending Boston Center
01:06PM 44.2314 -74.5258 102° East 218 251 6,100 -780 Descending Boston Center
01:07PM 44.2144 -74.4594 110° East 195 224 5,600 -300 Descending Boston Center
01:08PM 44.2053 -74.3933 101° East 194 223 5,600 -540 Level Boston Center
01:09PM 44.2458 -74.3472 39° Northeast 194 223 4,600 -1,020 Descending Boston Center